Time;durP1;ratioP1;P1;durP2;ratioP2;P2;SDS_P1;SDS_P2;PMS_P1;PMS_P2;Temp;Humidity;BMP_temperature;BMP_pressure;BME280_temperature;BME280_humidity;BME280_pressure;Samples;Min_cycle;Max_cycle;Signal;HPM_P1;HPM_P2
2021/04/26 00:01:05;;;;;;;3.03;2.38;;;17.40;99.90;;;;;;5039880;28;20024;-89
2021/04/26 00:03:31;;;;;;;2.70;2.50;;;17.30;99.90;;;;;;5045443;28;20037;-89
2021/04/26 00:05:57;;;;;;;4.90;2.85;;;17.30;99.90;;;;;;5038843;28;20033;-89
2021/04/26 00:08:22;;;;;;;2.80;2.58;;;17.30;99.90;;;;;;5048122;28;20040;-89
2021/04/26 00:10:48;;;;;;;4.25;2.70;;;17.30;99.90;;;;;;5044759;28;20033;-89
2021/04/26 00:13:14;;;;;;;3.25;2.30;;;17.40;99.90;;;;;;5047942;28;20059;-90
2021/04/26 00:15:40;;;;;;;3.33;2.65;;;17.40;99.90;;;;;;5046134;28;20086;-89
2021/04/26 00:18:06;;;;;;;3.47;2.60;;;17.40;99.90;;;;;;5048834;28;20025;-89
2021/04/26 00:20:32;;;;;;;5.22;2.63;;;17.50;99.90;;;;;;5052908;28;20021;-89
2021/04/26 00:22:59;;;;;;;3.88;2.92;;;17.50;99.90;;;;;;5048749;28;20020;-88
2021/04/26 00:25:25;;;;;;;3.17;2.60;;;17.20;99.90;;;;;;5048346;28;20087;-89
2021/04/26 00:27:52;;;;;;;3.47;2.78;;;17.20;99.90;;;;;;5045817;28;20017;-89
2021/04/26 00:30:20;;;;;;;3.20;2.42;;;17.20;99.90;;;;;;5016295;28;20041;-89
2021/04/26 00:32:46;;;;;;;2.83;2.55;;;17.10;99.90;;;;;;5049148;28;20501;-89
2021/04/26 00:35:13;;;;;;;3.10;2.80;;;17.10;99.90;;;;;;5045310;28;20037;-90
2021/04/26 00:37:41;;;;;;;2.95;2.60;;;17.10;99.90;;;;;;5047890;28;20017;-89
2021/04/26 00:40:09;;;;;;;4.43;3.28;;;17.10;99.90;;;;;;5047840;28;20044;-89
2021/04/26 00:42:35;;;;;;;4.47;2.60;;;17.10;99.90;;;;;;5048014;28;20037;-89
2021/04/26 00:45:01;;;;;;;2.72;2.53;;;17.10;99.90;;;;;;5051190;28;20362;-89
2021/04/26 00:47:27;;;;;;;2.80;2.60;;;17.10;99.90;;;;;;5044463;28;20104;-88
2021/04/26 00:49:52;;;;;;;3.17;2.90;;;17.10;99.90;;;;;;5045694;28;20124;-89
2021/04/26 00:52:18;;;;;;;3.17;2.88;;;17.10;99.90;;;;;;5047524;28;20040;-89
2021/04/26 00:54:44;;;;;;;3.40;2.70;;;17.00;99.90;;;;;;5047993;28;20079;-89
2021/04/26 00:57:10;;;;;;;2.70;2.50;;;17.00;99.90;;;;;;5049073;28;20049;-90
2021/04/26 00:59:36;;;;;;;5.07;2.85;;;16.90;99.90;;;;;;5052742;28;20094;-89
2021/04/26 01:02:02;;;;;;;3.60;3.30;;;16.90;99.90;;;;;;5042352;28;20032;-89
2021/04/26 01:04:30;;;;;;;4.00;3.00;;;16.80;99.90;;;;;;5047652;28;20028;-89
2021/04/26 01:06:56;;;;;;;3.55;2.83;;;16.80;99.90;;;;;;5047540;28;20028;-89
2021/04/26 01:09:22;;;;;;;3.65;3.15;;;16.80;99.90;;;;;;5046020;28;20079;-89
2021/04/26 01:12:08;;;;;;;4.50;2.92;;;16.80;99.90;;;;;;5053813;28;20029;-89
2021/04/26 01:15:02;;;;;;;2.90;2.60;;;16.80;99.90;;;;;;5050016;28;20048;-89
2021/04/26 01:17:31;;;;;;;4.55;3.10;;;16.90;99.90;;;;;;5042072;28;20515;-89
2021/04/26 01:20:20;;;;;;;3.42;2.67;;;16.90;99.90;;;;;;5046676;28;20481;-89
2021/04/26 01:23:27;;;;;;;5.05;2.72;;;16.80;99.90;;;;;;5039507;28;20029;-89
2021/04/26 01:25:53;;;;;;;3.20;2.90;;;16.70;99.90;;;;;;5043546;28;20108;-89
2021/04/26 01:28:56;;;;;;;3.55;2.88;;;16.70;99.90;;;;;;5036988;28;20035;-89
2021/04/26 01:31:36;;;;;;;4.55;2.88;;;16.70;99.90;;;;;;5037834;28;20037;-89
2021/04/26 01:34:02;;;;;;;3.30;3.00;;;16.70;99.90;;;;;;5046926;28;20037;-89
2021/04/26 01:36:28;;;;;;;4.07;2.95;;;16.60;99.90;;;;;;5047050;28;20113;-89
2021/04/26 01:38:56;;;;;;;3.38;3.08;;;16.50;99.90;;;;;;5051031;28;20029;-90
2021/04/26 01:41:28;;;;;;;4.07;2.70;;;16.50;99.90;;;;;;5048713;28;20032;-89
2021/04/26 01:43:56;;;;;;;3.13;2.83;;;16.60;99.90;;;;;;5046967;28;20021;-90
2021/04/26 01:46:24;;;;;;;4.82;3.35;;;16.40;99.90;;;;;;5044393;28;20017;-90
2021/04/26 01:48:51;;;;;;;3.42;3.10;;;16.30;99.90;;;;;;5045693;28;20029;-90
2021/04/26 01:51:18;;;;;;;3.78;2.90;;;16.20;99.90;;;;;;5046390;28;20034;-90
2021/04/26 01:53:45;;;;;;;3.58;3.20;;;16.30;99.90;;;;;;5051854;28;20037;-90
2021/04/26 01:56:14;;;;;;;3.80;3.00;;;16.30;99.90;;;;;;5046554;28;20029;-90
2021/04/26 01:58:43;;;;;;;3.63;3.13;;;16.20;99.90;;;;;;5046584;28;20021;-90
2021/04/26 02:01:13;;;;;;;6.13;3.55;;;16.20;99.90;;;;;;5040474;28;20053;-90
2021/04/26 02:03:40;;;;;;;4.10;3.60;;;16.60;99.90;;;;;;5062585;28;20026;-90
2021/04/26 02:06:06;;;;;;;3.85;3.00;;;16.10;99.90;;;;;;5049072;28;20032;-90
2021/04/26 02:08:33;;;;;;;3.53;3.22;;;16.40;99.90;;;;;;5048370;28;20468;-90
2021/04/26 02:10:59;;;;;;;4.25;3.78;;;16.20;99.90;;;;;;5046303;28;20040;-90
2021/04/26 02:13:26;;;;;;;3.22;2.92;;;16.40;99.90;;;;;;5046303;28;20033;-89
2021/04/26 02:15:53;;;;;;;4.40;3.70;;;16.10;99.90;;;;;;5039657;28;20103;-90
2021/04/26 02:18:23;;;;;;;4.13;2.97;;;16.10;99.90;;;;;;5015617;28;20065;-89
2021/04/26 02:20:49;;;;;;;3.20;2.90;;;16.10;99.90;;;;;;5060703;28;20020;-90
2021/04/26 02:23:14;;;;;;;3.50;3.20;;;16.10;99.90;;;;;;5044975;28;20493;-90
2021/04/26 02:25:40;;;;;;;3.40;3.10;;;16.10;99.90;;;;;;5046068;28;20029;-90
2021/04/26 02:28:06;;;;;;;6.32;3.60;;;16.40;99.90;;;;;;5046122;28;20020;-90
2021/04/26 02:30:32;;;;;;;4.18;3.72;;;15.80;99.90;;;;;;5033760;28;20068;-90
2021/04/26 02:32:57;;;;;;;4.25;3.13;;;15.90;99.90;;;;;;5047125;28;20044;-91
2021/04/26 02:35:34;;;;;;;3.95;3.65;;;16.30;99.90;;;;;;5048364;28;20071;-90
2021/04/26 02:38:03;;;;;;;4.10;3.55;;;15.90;99.90;;;;;;5036671;28;20033;-90
2021/04/26 02:40:51;;;;;;;5.10;3.83;;;16.40;99.90;;;;;;5039435;28;20021;-90
2021/04/26 02:43:17;;;;;;;3.97;3.50;;;16.10;99.90;;;;;;5045918;28;20028;-91
2021/04/26 02:45:54;;;;;;;4.53;3.50;;;16.10;99.90;;;;;;5040087;28;20031;-90
2021/04/26 02:48:21;;;;;;;4.82;3.70;;;16.20;99.90;;;;;;5015032;28;20029;-90
2021/04/26 02:50:51;;;;;;;3.92;3.53;;;16.20;99.90;;;;;;5052128;28;20057;-89
2021/04/26 02:53:18;;;;;;;4.20;3.80;;;16.00;99.90;;;;;;5046090;28;20033;-91
2021/04/26 02:55:45;;;;;;;4.10;3.53;;;16.00;99.90;;;;;;5046130;28;20036;-90
2021/04/26 02:58:12;;;;;;;4.20;3.70;;;16.10;99.90;;;;;;5046591;28;20029;-90
2021/04/26 03:00:39;;;;;;;5.72;3.60;;;16.40;99.90;;;;;;5037255;28;20036;-90
2021/04/26 03:03:05;;;;;;;6.30;3.80;;;16.00;99.90;;;;;;5032850;28;20497;-90
2021/04/26 03:05:31;;;;;;;4.10;3.70;;;16.30;99.90;;;;;;5047257;28;20029;-89
2021/04/26 03:07:56;;;;;;;5.03;4.05;;;15.80;99.90;;;;;;5044820;28;20084;-90
2021/04/26 03:10:22;;;;;;;3.90;3.55;;;15.80;99.90;;;;;;5040043;28;20041;-90
2021/04/26 03:12:50;;;;;;;6.45;4.10;;;15.90;99.90;;;;;;5046016;28;20025;-90
2021/04/26 03:15:23;;;;;;;4.95;4.15;;;15.90;99.90;;;;;;5042452;28;20025;-90
2021/04/26 03:17:49;;;;;;;4.30;3.78;;;15.90;99.90;;;;;;5044839;28;20021;-91
2021/04/26 03:20:18;;;;;;;4.22;3.83;;;15.80;99.90;;;;;;5044302;28;20503;-90
2021/04/26 03:22:45;;;;;;;4.47;4.07;;;15.80;99.90;;;;;;5040131;28;20519;-90
2021/04/26 03:25:11;;;;;;;4.18;3.80;;;15.70;99.90;;;;;;5045402;28;20044;-90
2021/04/26 03:27:41;;;;;;;5.38;4.15;;;15.70;99.90;;;;;;5045114;28;20057;-90
2021/04/26 03:30:08;;;;;;;4.70;4.28;;;15.60;99.90;;;;;;5039507;28;20083;-90
2021/04/26 03:32:34;;;;;;;6.78;4.22;;;15.60;99.90;;;;;;5049841;28;20037;-90
2021/04/26 03:35:00;;;;;;;4.95;4.45;;;15.60;99.90;;;;;;5044158;28;20037;-90
2021/04/26 03:37:26;;;;;;;5.38;4.55;;;15.80;99.90;;;;;;5045655;28;20489;-90
2021/04/26 03:39:52;;;;;;;5.20;4.70;;;15.50;99.90;;;;;;5046088;28;20029;-90
2021/04/26 03:42:19;;;;;;;5.55;4.70;;;15.60;99.90;;;;;;5047181;28;20033;-90
2021/04/26 03:44:46;;;;;;;5.05;4.60;;;15.70;99.90;;;;;;5045446;28;20045;-90
2021/04/26 03:47:12;;;;;;;5.30;4.80;;;15.30;99.90;;;;;;5047405;28;20037;-91
2021/04/26 03:49:39;;;;;;;5.68;4.43;;;15.40;99.90;;;;;;5047528;28;20055;-91
2021/04/26 03:52:06;;;;;;;4.43;4.10;;;15.50;99.90;;;;;;5049427;28;20488;-90
2021/04/26 03:54:32;;;;;;;5.20;4.70;;;15.40;99.90;;;;;;5048330;28;20061;-90
2021/04/26 03:56:58;;;;;;;4.97;4.47;;;15.80;99.90;;;;;;5053485;28;20055;-90
2021/04/26 03:59:24;;;;;;;5.53;4.22;;;15.80;99.90;;;;;;5051898;28;20026;-90
2021/04/26 04:01:49;;;;;;;8.80;4.65;;;15.30;99.90;;;;;;5043450;28;20043;-90
2021/04/26 04:04:15;;;;;;;5.60;4.97;;;15.40;99.90;;;;;;5040651;28;20032;-90
2021/04/26 04:06:41;;;;;;;6.05;4.63;;;15.30;99.90;;;;;;5049303;28;21921;-90
2021/04/26 04:09:07;;;;;;;5.40;4.82;;;15.30;99.90;;;;;;5050679;28;20029;-90
2021/04/26 04:11:33;;;;;;;4.82;4.43;;;15.30;99.90;;;;;;5052338;28;20017;-90
2021/04/26 04:13:59;;;;;;;5.13;4.63;;;15.30;99.90;;;;;;5048180;28;20124;-91
2021/04/26 04:16:28;;;;;;;5.38;4.50;;;15.30;99.90;;;;;;5041130;28;20515;-91
2021/04/26 04:18:54;;;;;;;6.75;5.43;;;15.70;99.90;;;;;;5048004;28;20028;-91
2021/04/26 04:21:19;;;;;;;8.02;6.75;;;15.50;99.90;;;;;;5048375;28;20033;-91
2021/04/26 04:23:45;;;;;;;5.85;5.25;;;15.30;99.90;;;;;;5054688;28;20025;-90
2021/04/26 04:26:11;;;;;;;6.03;5.15;;;15.20;99.90;;;;;;5046687;28;20025;-90
2021/04/26 04:28:37;;;;;;;6.50;5.78;;;15.20;99.90;;;;;;5047278;28;20392;-90
2021/04/26 04:31:03;;;;;;;5.47;4.97;;;15.60;99.90;;;;;;5036656;28;20048;-91
2021/04/26 04:33:29;;;;;;;5.70;5.20;;;15.10;99.90;;;;;;5045656;28;20440;-91
2021/04/26 04:35:56;;;;;;;5.85;5.35;;;15.10;99.90;;;;;;5049904;28;20021;-90
2021/04/26 04:38:23;;;;;;;7.00;6.30;;;15.10;99.90;;;;;;5049942;28;20087;-91
2021/04/26 04:40:49;;;;;;;5.80;5.30;;;15.40;99.90;;;;;;5046931;28;20555;-91
2021/04/26 04:43:14;;;;;;;6.53;5.90;;;15.40;99.90;;;;;;5048125;28;20037;-91
2021/04/26 04:45:40;;;;;;;6.35;5.75;;;15.00;99.90;;;;;;5034079;28;20108;-91
2021/04/26 04:48:06;;;;;;;6.90;5.53;;;15.30;99.90;;;;;;5050019;28;20021;-91
2021/04/26 04:50:31;;;;;;;6.40;5.13;;;14.90;99.90;;;;;;5049944;28;20020;-92
2021/04/26 04:52:58;;;;;;;6.40;5.80;;;14.90;99.90;;;;;;5047710;28;20037;-90
2021/04/26 04:55:24;;;;;;;7.13;5.50;;;14.90;99.90;;;;;;5047185;28;20036;-90
2021/04/26 04:57:50;;;;;;;6.45;5.75;;;14.90;99.90;;;;;;5048235;28;20508;-91
2021/04/26 05:00:16;;;;;;;6.05;5.40;;;14.90;99.90;;;;;;5032764;28;20030;-92
2021/04/26 05:02:42;;;;;;;5.82;5.25;;;14.90;99.90;;;;;;5053174;28;20021;-90
2021/04/26 05:05:08;;;;;;;6.22;5.63;;;14.90;99.90;;;;;;5047507;28;20032;-90
2021/04/26 05:07:34;;;;;;;7.90;5.85;;;14.90;99.90;;;;;;5047706;28;20699;-90
2021/04/26 05:09:59;;;;;;;6.20;5.60;;;15.00;99.90;;;;;;5046702;28;20025;-91
2021/04/26 05:12:25;;;;;;;7.90;6.35;;;15.30;99.90;;;;;;5049567;28;20030;-91
2021/04/26 05:14:51;;;;;;;6.43;5.82;;;14.90;99.90;;;;;;5032601;28;20041;-91
2021/04/26 05:17:18;;;;;;;6.55;5.95;;;14.90;99.90;;;;;;5043142;28;20131;-90
2021/04/26 05:19:44;;;;;;;6.30;5.75;;;14.90;99.90;;;;;;5037642;28;20527;-91
2021/04/26 05:22:10;;;;;;;7.05;6.20;;;15.30;99.90;;;;;;5045624;28;20032;-90
2021/04/26 05:24:37;;;;;;;7.43;6.72;;;15.40;99.90;;;;;;5037582;28;20025;-91
2021/04/26 05:27:03;;;;;;;7.25;6.55;;;15.50;99.90;;;;;;5050967;28;20025;-91
2021/04/26 05:29:28;;;;;;;8.00;7.03;;;14.90;99.90;;;;;;5034127;28;20025;-89
2021/04/26 05:31:54;;;;;;;8.15;6.60;;;14.90;99.90;;;;;;5043422;28;20049;-90
2021/04/26 05:34:20;;;;;;;7.25;6.20;;;15.00;99.90;;;;;;5041072;28;20060;-90
2021/04/26 05:36:45;;;;;;;8.73;6.30;;;14.90;99.90;;;;;;5033635;28;20036;-90
2021/04/26 05:39:11;;;;;;;8.90;6.85;;;15.30;99.90;;;;;;5049073;28;20037;-90
2021/04/26 05:41:37;;;;;;;7.35;6.60;;;15.20;99.90;;;;;;5033430;28;20371;-87
2021/04/26 05:44:03;;;;;;;7.32;6.35;;;14.80;99.90;;;;;;5044661;28;20128;-87
2021/04/26 05:46:29;;;;;;;7.30;6.60;;;15.00;99.90;;;;;;5046375;28;20032;-89
2021/04/26 05:48:55;;;;;;;8.65;6.78;;;15.10;99.90;;;;;;5047045;28;20028;-90
2021/04/26 05:51:21;;;;;;;7.25;6.22;;;15.50;99.90;;;;;;5031723;28;20037;-88
2021/04/26 05:53:47;;;;;;;9.13;6.57;;;15.50;99.90;;;;;;5052728;28;20120;-89
2021/04/26 05:56:13;;;;;;;7.53;6.60;;;15.20;99.90;;;;;;5042242;28;20362;-88
2021/04/26 05:58:38;;;;;;;11.63;7.53;;;15.20;99.90;;;;;;5039895;28;20041;-89
2021/04/26 06:01:04;;;;;;;7.75;6.68;;;15.50;99.90;;;;;;5045835;28;20021;-90
2021/04/26 06:03:30;;;;;;;11.65;7.35;;;15.30;99.90;;;;;;5045820;28;20025;-93
2021/04/26 06:05:59;;;;;;;8.68;6.97;;;15.20;99.90;;;;;;5052069;28;20563;-91
2021/04/26 06:08:26;;;;;;;11.02;7.28;;;15.60;99.90;;;;;;5046732;28;20476;-87
2021/04/26 06:10:51;;;;;;;10.07;7.18;;;15.10;99.90;;;;;;5043317;28;20112;-87
2021/04/26 06:13:17;;;;;;;8.68;7.35;;;15.10;99.90;;;;;;5037762;28;20469;-89
2021/04/26 06:15:44;;;;;;;10.60;7.55;;;15.30;99.90;;;;;;5045926;28;20047;-92
2021/04/26 06:18:14;;;;;;;7.63;6.82;;;15.40;99.90;;;;;;5048618;28;20020;-91
2021/04/26 06:20:41;;;;;;;8.30;6.93;;;15.10;99.90;;;;;;5043364;28;20033;-88
2021/04/26 06:23:07;;;;;;;8.00;6.78;;;15.30;99.90;;;;;;5044919;28;20017;-88
2021/04/26 06:25:35;;;;;;;8.40;6.88;;;15.50;99.90;;;;;;5042008;28;20037;-86
2021/04/26 06:28:01;;;;;;;11.25;6.82;;;15.60;99.90;;;;;;5035438;28;20408;-86
2021/04/26 06:30:26;;;;;;;8.95;7.22;;;16.10;99.90;;;;;;5046029;28;20033;-87
2021/04/26 06:32:52;;;;;;;10.68;7.10;;;15.90;99.90;;;;;;5051973;28;20040;-86
2021/04/26 06:35:17;;;;;;;8.73;7.03;;;16.00;99.90;;;;;;5046882;28;20029;-90
2021/04/26 06:37:44;;;;;;;9.77;7.00;;;16.10;99.90;;;;;;5046295;28;20469;-89
2021/04/26 06:40:10;;;;;;;12.48;7.57;;;15.90;99.90;;;;;;5044952;28;20053;-89
2021/04/26 06:42:36;;;;;;;9.68;7.38;;;16.00;99.90;;;;;;5032942;28;20053;-86
2021/04/26 06:45:02;;;;;;;10.45;7.68;;;16.40;99.90;;;;;;5046368;28;20067;-86
2021/04/26 06:47:27;;;;;;;13.48;8.48;;;16.30;99.90;;;;;;5048874;28;20052;-83
2021/04/26 06:49:53;;;;;;;11.88;8.68;;;16.10;99.90;;;;;;5046632;28;20488;-87
2021/04/26 06:52:19;;;;;;;9.85;8.25;;;16.20;99.90;;;;;;5044911;28;20029;-78
2021/04/26 06:54:46;;;;;;;12.85;8.35;;;16.10;99.90;;;;;;5045060;28;20071;-77
2021/04/26 06:57:12;;;;;;;9.02;7.53;;;15.50;99.90;;;;;;5033771;28;20041;-84
2021/04/26 06:59:37;;;;;;;11.52;8.55;;;15.60;99.90;;;;;;5050142;28;20029;-82
2021/04/26 07:02:03;;;;;;;10.30;7.75;;;15.70;99.90;;;;;;5043915;28;20025;-82
2021/04/26 07:04:29;;;;;;;12.45;8.45;;;15.80;99.90;;;;;;5045448;28;20574;-82
2021/04/26 07:06:54;;;;;;;9.30;8.25;;;16.10;99.90;;;;;;5045513;28;20021;-82
2021/04/26 07:09:20;;;;;;;12.75;8.25;;;15.80;99.90;;;;;;5046273;28;20116;-85
2021/04/26 07:11:45;;;;;;;10.32;7.53;;;15.80;99.90;;;;;;5036220;28;20102;-82
2021/04/26 07:14:11;;;;;;;9.15;7.40;;;16.20;99.90;;;;;;5035883;28;20056;-83
2021/04/26 07:16:37;;;;;;;11.25;7.93;;;16.40;99.90;;;;;;5040154;28;20025;-83
2021/04/26 07:19:03;;;;;;;10.75;8.30;;;16.00;99.90;;;;;;5050007;28;20472;-82
2021/04/26 07:21:28;;;;;;;9.27;7.38;;;15.80;99.90;;;;;;5049607;28;20025;-82
2021/04/26 07:23:54;;;;;;;11.27;7.90;;;16.00;99.90;;;;;;5055267;28;20029;-81
2021/04/26 07:26:19;;;;;;;13.10;7.93;;;16.20;99.90;;;;;;5039762;28;20500;-82
2021/04/26 07:28:45;;;;;;;19.85;8.75;;;16.70;99.90;;;;;;5044790;28;20044;-82
2021/04/26 07:31:11;;;;;;;8.43;7.40;;;16.90;99.90;;;;;;5049539;28;20124;-83
2021/04/26 07:33:37;;;;;;;11.40;7.65;;;16.80;99.90;;;;;;5049535;28;20037;-83
2021/04/26 07:36:03;;;;;;;11.25;7.10;;;16.90;99.90;;;;;;5052989;28;20029;-82
2021/04/26 07:38:28;;;;;;;9.07;6.80;;;17.00;99.90;;;;;;5052444;28;20033;-82
2021/04/26 07:40:54;;;;;;;8.75;7.05;;;17.00;99.90;;;;;;5040146;28;20025;-82
2021/04/26 07:43:19;;;;;;;7.95;6.22;;;17.30;99.90;;;;;;5041131;28;20056;-82
2021/04/26 07:45:45;;;;;;;7.97;5.80;;;17.10;99.90;;;;;;5049161;28;20029;-82
2021/04/26 07:48:11;;;;;;;8.45;6.10;;;17.00;99.90;;;;;;5050445;28;20511;-82
2021/04/26 07:50:36;;;;;;;9.25;6.28;;;16.70;99.90;;;;;;5049869;28;20032;-82
2021/04/26 07:53:02;;;;;;;8.55;6.18;;;16.60;99.90;;;;;;5049005;28;20495;-83
2021/04/26 07:55:28;;;;;;;10.82;6.53;;;17.00;99.90;;;;;;5047835;28;20037;-82
2021/04/26 07:57:54;;;;;;;7.88;6.28;;;17.20;99.90;;;;;;5046997;28;20021;-82
2021/04/26 08:00:20;;;;;;;7.90;5.93;;;17.30;99.90;;;;;;5049895;28;20029;-82
2021/04/26 08:02:46;;;;;;;6.80;5.55;;;17.30;99.90;;;;;;5054925;28;20052;-82
2021/04/26 08:05:12;;;;;;;6.18;5.57;;;17.20;99.90;;;;;;5042894;28;20694;-83
2021/04/26 08:07:38;;;;;;;6.68;5.35;;;17.00;99.90;;;;;;5049301;28;20021;-82
2021/04/26 08:10:04;;;;;;;7.75;5.68;;;17.20;99.90;;;;;;5047326;28;20500;-81
2021/04/26 08:12:30;;;;;;;7.47;5.57;;;17.10;99.90;;;;;;5048453;28;20021;-82
2021/04/26 08:14:55;;;;;;;17.35;6.28;;;17.20;99.90;;;;;;5053314;28;20550;-82
2021/04/26 08:17:21;;;;;;;12.40;6.20;;;17.30;99.90;;;;;;5050483;28;20100;-82
2021/04/26 08:19:47;;;;;;;10.70;5.80;;;17.30;99.90;;;;;;5043162;28;20033;-82
2021/04/26 08:22:13;;;;;;;6.90;5.65;;;17.30;99.90;;;;;;5047330;28;20029;-83
2021/04/26 08:24:39;;;;;;;11.27;6.10;;;17.20;99.90;;;;;;5048050;28;20490;-82
2021/04/26 08:27:05;;;;;;;7.88;5.70;;;17.30;99.90;;;;;;5051379;28;20017;-82
2021/04/26 08:29:30;;;;;;;8.88;5.55;;;17.60;99.90;;;;;;5048724;28;20055;-82
2021/04/26 08:31:56;;;;;;;6.57;5.40;;;17.80;99.90;;;;;;5048297;28;20045;-83
2021/04/26 08:34:22;;;;;;;8.27;5.60;;;17.90;99.90;;;;;;5043043;28;20076;-83
2021/04/26 08:36:48;;;;;;;9.18;6.00;;;18.00;99.90;;;;;;5048616;28;20056;-82
2021/04/26 08:39:16;;;;;;;7.85;5.78;;;18.10;99.90;;;;;;5048941;28;20517;-82
2021/04/26 08:41:43;;;;;;;7.35;6.07;;;18.50;99.90;;;;;;5053792;28;20104;-83
2021/04/26 08:44:09;;;;;;;7.45;5.90;;;18.30;99.90;;;;;;5048210;28;20033;-84
2021/04/26 08:46:35;;;;;;;8.25;5.45;;;18.10;99.90;;;;;;5048116;28;20043;-82
2021/04/26 08:49:01;;;;;;;6.55;5.82;;;18.70;99.90;;;;;;5042522;28;20076;-82
2021/04/26 08:51:30;;;;;;;6.22;5.25;;;18.70;99.90;;;;;;5047661;28;20409;-82
2021/04/26 08:53:56;;;;;;;8.60;5.03;;;18.70;99.90;;;;;;5034846;28;20029;-81
2021/04/26 08:56:21;;;;;;;9.13;5.65;;;18.40;99.90;;;;;;5047035;28;20029;-81
2021/04/26 08:58:47;;;;;;;7.15;5.05;;;18.70;99.90;;;;;;5045951;28;20036;-83
2021/04/26 09:01:12;;;;;;;7.35;5.43;;;18.80;99.90;;;;;;5046414;28;20507;-81
2021/04/26 09:03:39;;;;;;;8.23;5.78;;;19.30;99.90;;;;;;5041768;28;20032;-82
2021/04/26 09:06:10;;;;;;;6.05;5.18;;;19.30;99.90;;;;;;5035870;28;20032;-83
2021/04/26 09:08:36;;;;;;;6.80;5.30;;;18.80;99.90;;;;;;5049901;28;20496;-82
2021/04/26 09:11:06;;;;;;;8.50;5.30;;;19.10;99.90;;;;;;5047531;28;20106;-83
2021/04/26 09:13:39;;;;;;;10.57;5.45;;;19.40;99.90;;;;;;5047783;28;20085;-82
2021/04/26 09:16:20;;;;;;;7.18;5.55;;;19.60;99.90;;;;;;5046760;28;20385;-83
2021/04/26 09:18:58;;;;;;;7.57;5.65;;;19.20;99.90;;;;;;5045008;28;20017;-82
2021/04/26 09:21:35;;;;;;;7.95;5.78;;;19.10;99.90;;;;;;5016160;28;20116;-82
2021/04/26 09:24:25;;;;;;;10.02;5.35;;;19.30;99.90;;;;;;5050410;28;20107;-83
2021/04/26 09:26:53;;;;;;;7.75;5.15;;;19.30;99.90;;;;;;5046008;28;20040;-82
2021/04/26 09:29:24;;;;;;;7.85;5.43;;;19.60;99.90;;;;;;5048746;28;20037;-83
2021/04/26 09:32:07;;;;;;;6.68;5.28;;;19.50;99.90;;;;;;5045273;28;20048;-84
2021/04/26 09:34:45;;;;;;;6.78;5.35;;;19.80;99.90;;;;;;5035058;28;20512;-84
2021/04/26 09:37:13;;;;;;;8.63;5.88;;;19.80;99.90;;;;;;5045746;28;20024;-83
2021/04/26 09:39:57;;;;;;;12.52;6.07;;;20.10;99.90;;;;;;5046407;28;20114;-84
2021/04/26 09:42:49;;;;;;;7.18;4.90;;;20.50;99.90;;;;;;5031689;28;20050;-83
2021/04/26 09:45:15;;;;;;;6.07;5.35;;;20.20;99.90;;;;;;5048188;28;20527;-83
2021/04/26 09:47:41;;;;;;;6.15;4.90;;;20.60;99.90;;;;;;5053832;28;20057;-84
2021/04/26 09:50:07;;;;;;;9.23;4.97;;;21.00;99.90;;;;;;5051012;28;20040;-84
2021/04/26 09:52:33;;;;;;;8.38;5.43;;;20.60;99.90;;;;;;5047434;28;20024;-79
2021/04/26 09:54:58;;;;;;;10.70;5.10;;;20.80;99.90;;;;;;5034454;28;20082;-84
2021/04/26 09:57:24;;;;;;;8.73;5.00;;;21.20;99.90;;;;;;5029988;28;20033;-83
2021/04/26 09:59:51;;;;;;;6.40;4.75;;;21.10;99.90;;;;;;5053492;28;20436;-83
2021/04/26 10:02:16;;;;;;;7.53;5.18;;;21.00;99.90;;;;;;5044281;28;20036;-87
2021/04/26 10:04:43;;;;;;;6.20;5.30;;;21.10;99.90;;;;;;5036639;28;20025;-86
2021/04/26 10:07:08;;;;;;;5.97;5.30;;;21.00;99.90;;;;;;5046379;28;20404;-85
2021/04/26 10:09:34;;;;;;;7.93;5.13;;;20.90;99.90;;;;;;5046898;28;20029;-85
2021/04/26 10:12:00;;;;;;;7.65;5.22;;;21.40;99.90;;;;;;5030300;28;20046;-85
2021/04/26 10:14:26;;;;;;;8.07;5.90;;;21.50;99.90;;;;;;5048559;28;20040;-85
2021/04/26 10:16:57;;;;;;;7.25;4.93;;;21.60;99.90;;;;;;5047925;28;20021;-86
2021/04/26 10:19:30;;;;;;;7.18;4.97;;;21.70;99.90;;;;;;5047401;28;20040;-89
2021/04/26 10:21:58;;;;;;;6.63;4.93;;;21.60;99.90;;;;;;5043960;28;20044;-94
2021/04/26 10:24:26;;;;;;;6.70;4.95;;;21.80;99.90;;;;;;5048000;28;20513;-95
2021/04/26 10:26:53;;;;;;;5.95;4.78;;;21.80;99.90;;;;;;5048695;28;20037;-90
2021/04/26 10:29:33;;;;;;;6.22;4.70;;;22.50;99.90;;;;;;5046826;28;20433;-88
2021/04/26 10:32:04;;;;;;;5.20;4.70;;;22.90;99.90;;;;;;5044843;28;20159;-91
2021/04/26 10:34:33;;;;;;;6.40;4.50;;;22.90;99.90;;;;;;5031856;28;20532;-95
2021/04/26 10:37:02;;;;;;;7.40;4.90;;;22.80;99.90;;;;;;5034242;28;20036;-91
2021/04/26 10:39:30;;;;;;;7.82;4.93;;;22.80;99.90;;;;;;5046442;28;20493;-88
2021/04/26 10:42:17;;;;;;;5.38;4.32;;;23.50;99.90;;;;;;5044431;28;20029;-88
2021/04/26 10:44:44;;;;;;;5.22;4.20;;;25.80;99.90;;;;;;5050424;28;20420;-86
2021/04/26 10:47:17;;;;;;;5.15;4.43;;;25.10;99.90;;;;;;5045913;28;20389;-87
2021/04/26 10:49:44;;;;;;;6.45;4.90;;;25.00;99.90;;;;;;5032878;28;20059;-86
2021/04/26 10:52:28;;;;;;;8.63;5.10;;;24.70;99.90;;;;;;5036310;28;20137;-88
2021/04/26 10:55:03;;;;;;;5.43;4.30;;;25.70;99.90;;;;;;5044330;28;20036;-86
2021/04/26 10:57:32;;;;;;;5.65;4.13;;;25.70;99.90;;;;;;5016560;28;20112;-87
2021/04/26 11:00:26;;;;;;;8.40;4.10;;;24.50;99.90;;;;;;5050623;28;20106;-84
2021/04/26 11:03:19;;;;;;;6.80;4.35;;;23.70;99.90;;;;;;5044582;28;20032;-89
2021/04/26 11:05:46;;;;;;;6.75;4.45;;;23.60;99.90;;;;;;5044141;28;20082;-84
2021/04/26 11:08:27;;;;;;;6.15;4.30;;;24.00;99.90;;;;;;5045293;28;20473;-82
2021/04/26 11:11:11;;;;;;;6.25;3.88;;;25.50;99.90;;;;;;5045092;28;20056;-81
2021/04/26 11:13:59;;;;;;;6.85;4.28;;;25.90;99.90;;;;;;5042511;28;20036;-82
2021/04/26 11:16:29;;;;;;;6.32;4.00;;;25.60;99.90;;;;;;5045766;28;20025;-83
2021/04/26 11:19:02;;;;;;;5.90;4.18;;;25.20;99.90;;;;;;5043635;28;20058;-84
2021/04/26 11:21:43;;;;;;;6.32;4.22;;;24.80;99.90;;;;;;5046009;28;20052;-83
2021/04/26 11:24:22;;;;;;;4.75;3.97;;;23.60;99.90;;;;;;5047556;28;20075;-84
2021/04/26 11:27:10;;;;;;;5.40;3.70;;;23.90;99.90;;;;;;5047891;28;20091;-84
2021/04/26 11:29:41;;;;;;;5.18;4.13;;;23.90;99.90;;;;;;5048848;28;20036;-84
2021/04/26 11:32:09;;;;;;;5.35;3.80;;;23.70;99.90;;;;;;5045418;28;20057;-84
2021/04/26 11:34:56;;;;;;;5.38;4.00;;;24.20;99.90;;;;;;5038625;28;20370;-84
2021/04/26 11:37:24;;;;;;;4.80;4.05;;;23.50;99.90;;;;;;5041461;28;20503;-84
2021/04/26 11:39:55;;;;;;;4.53;3.95;;;23.50;99.90;;;;;;5045607;28;20036;-84
2021/04/26 11:42:26;;;;;;;5.82;4.20;;;22.90;99.90;;;;;;5014055;28;20036;-85
2021/04/26 11:44:53;;;;;;;6.80;3.90;;;22.90;99.90;;;;;;5044272;28;20442;-84
2021/04/26 11:47:20;;;;;;;7.75;4.30;;;22.90;99.90;;;;;;5042360;28;20028;-82
2021/04/26 11:49:48;;;;;;;7.57;4.63;;;22.70;99.90;;;;;;5039892;28;20446;-84
2021/04/26 11:52:19;;;;;;;6.22;4.97;;;21.50;99.90;;;;;;5044808;28;20041;-82
2021/04/26 11:54:47;;;;;;;5.57;4.35;;;21.30;99.90;;;;;;5045415;28;20041;-84
2021/04/26 11:57:19;;;;;;;7.60;4.90;;;21.10;99.90;;;;;;5046831;28;20030;-84
2021/04/26 11:59:52;;;;;;;5.90;4.80;;;20.90;99.90;;;;;;5051267;28;20032;-84
2021/04/26 12:02:42;;;;;;;5.93;4.72;;;21.10;99.90;;;;;;5040944;28;20013;-84
2021/04/26 12:05:21;;;;;;;7.32;4.88;;;20.90;99.90;;;;;;5040492;28;20542;-85
2021/04/26 12:07:47;;;;;;;6.25;4.80;;;20.70;99.90;;;;;;5042982;28;20576;-84
2021/04/26 12:10:22;;;;;;;6.15;4.82;;;20.70;99.90;;;;;;5047614;28;20104;-85
2021/04/26 12:12:52;;;;;;;7.00;4.65;;;20.70;99.90;;;;;;5047311;28;20104;-84
2021/04/26 12:15:20;;;;;;;7.32;4.90;;;21.30;99.90;;;;;;5049300;28;20038;-85
2021/04/26 12:17:49;;;;;;;8.57;4.63;;;21.80;99.90;;;;;;5048012;28;20160;-84
2021/04/26 12:20:17;;;;;;;9.63;4.78;;;22.10;99.90;;;;;;5047069;28;20116;-85
2021/04/26 12:22:48;;;;;;;5.93;4.78;;;22.30;99.90;;;;;;5043743;28;20507;-85
2021/04/26 12:25:14;;;;;;;6.65;4.80;;;22.40;99.90;;;;;;5048485;28;20056;-85
2021/04/26 12:27:41;;;;;;;4.57;4.00;;;22.60;99.90;;;;;;5048806;28;20040;-85
2021/04/26 12:30:11;;;;;;;7.32;4.45;;;22.90;99.90;;;;;;5050423;28;20098;-85
2021/04/26 12:32:37;;;;;;;5.50;4.60;;;22.90;99.90;;;;;;5050674;28;20493;-85
2021/04/26 12:35:18;;;;;;;6.28;4.68;;;23.10;99.90;;;;;;5035812;28;20033;-85
2021/04/26 12:37:50;;;;;;;6.60;4.30;;;22.90;99.90;;;;;;5048358;28;20039;-84
2021/04/26 12:40:19;;;;;;;5.03;4.53;;;22.70;99.90;;;;;;5048749;28;20025;-85
2021/04/26 12:42:48;;;;;;;6.53;4.38;;;22.90;99.90;;;;;;5041142;28;20516;-85
2021/04/26 12:45:23;;;;;;;6.40;4.75;;;22.60;99.90;;;;;;5050061;28;20026;-84
2021/04/26 12:47:54;;;;;;;7.45;4.97;;;22.50;99.90;;;;;;5045655;28;20032;-85
2021/04/26 12:50:31;;;;;;;8.52;4.70;;;22.20;99.90;;;;;;5043962;28;20021;-85
2021/04/26 12:53:04;;;;;;;5.80;4.40;;;22.00;99.90;;;;;;5046779;28;20090;-84